createdAt,value
2018-10-16T00:00:52.213Z,99.90
2018-10-16T00:03:21.622Z,99.90
2018-10-16T00:05:51.043Z,99.90
2018-10-16T00:08:20.475Z,99.90
2018-10-16T00:10:49.852Z,99.90
2018-10-16T00:13:19.228Z,99.90
2018-10-16T00:15:48.716Z,99.90
2018-10-16T00:18:18.135Z,99.90
2018-10-16T00:20:47.556Z,99.90
2018-10-16T00:23:16.908Z,99.90
2018-10-16T00:25:46.285Z,99.90
2018-10-16T00:28:15.669Z,99.90
2018-10-16T00:30:45.050Z,99.90
2018-10-16T00:33:14.477Z,99.90
2018-10-16T00:35:43.863Z,99.90
2018-10-16T00:38:13.254Z,99.90
2018-10-16T00:40:42.796Z,99.90
2018-10-16T00:43:12.267Z,99.90
2018-10-16T00:45:41.870Z,99.90
2018-10-16T00:48:11.288Z,99.90
2018-10-16T00:50:40.719Z,99.90
2018-10-16T00:53:10.142Z,99.90
2018-10-16T00:55:39.556Z,99.90
2018-10-16T00:58:08.987Z,99.90
2018-10-16T01:00:38.381Z,99.90
2018-10-16T01:03:07.798Z,99.90
2018-10-16T01:05:37.201Z,99.90
2018-10-16T01:08:06.781Z,99.90
2018-10-16T01:10:36.188Z,99.90
2018-10-16T01:13:05.610Z,99.90
2018-10-16T01:15:35.028Z,99.90
2018-10-16T01:18:04.445Z,99.90
2018-10-16T01:20:33.835Z,99.90
2018-10-16T01:23:03.254Z,99.90
2018-10-16T01:25:32.633Z,99.90
2018-10-16T01:28:02.082Z,99.90
2018-10-16T01:30:31.471Z,99.90
2018-10-16T01:33:00.961Z,99.90
2018-10-16T01:35:30.397Z,99.90
2018-10-16T01:37:59.819Z,99.90
2018-10-16T01:40:29.271Z,99.90
2018-10-16T01:42:58.690Z,99.90
2018-10-16T01:45:28.094Z,99.90
2018-10-16T01:47:57.517Z,99.90
2018-10-16T01:50:26.956Z,99.90
2018-10-16T01:52:56.390Z,99.90
2018-10-16T01:55:25.773Z,99.90
2018-10-16T01:57:55.181Z,99.90
2018-10-16T02:00:24.666Z,99.90
2018-10-16T02:02:54.230Z,99.90
2018-10-16T02:05:23.846Z,99.90
2018-10-16T02:07:53.259Z,99.90
2018-10-16T02:10:22.669Z,99.90
2018-10-16T02:12:52.125Z,99.90
2018-10-16T02:15:21.537Z,99.90
2018-10-16T02:17:50.992Z,99.90
2018-10-16T02:20:20.301Z,99.90
2018-10-16T02:22:49.736Z,99.90
2018-10-16T02:25:19.161Z,99.90
2018-10-16T02:27:48.600Z,99.90
2018-10-16T02:33:28.424Z,99.90
2018-10-16T02:35:57.864Z,99.90
2018-10-16T02:38:27.270Z,99.90
2018-10-16T02:40:56.682Z,99.90
2018-10-16T02:43:26.047Z,99.90
2018-10-16T02:45:55.491Z,99.90
2018-10-16T02:48:24.926Z,99.90
2018-10-16T02:50:54.347Z,99.90
2018-10-16T02:53:23.782Z,99.90
2018-10-16T02:55:53.177Z,99.90
2018-10-16T02:58:22.524Z,99.90
2018-10-16T03:00:52.057Z,99.90
2018-10-16T03:03:21.454Z,99.90
2018-10-16T03:05:50.833Z,99.90
2018-10-16T03:08:20.331Z,99.90
2018-10-16T03:10:49.739Z,99.90
2018-10-16T03:13:19.198Z,99.90
2018-10-16T03:15:48.590Z,99.90
2018-10-16T03:18:17.999Z,99.90
2018-10-16T03:20:47.423Z,99.90
2018-10-16T03:23:17.004Z,99.90
2018-10-16T03:25:46.432Z,99.90
2018-10-16T03:28:15.888Z,99.90
2018-10-16T03:30:45.414Z,99.90
2018-10-16T03:33:14.847Z,99.90
2018-10-16T03:35:44.244Z,99.90
2018-10-16T03:38:13.711Z,99.90
2018-10-16T03:40:43.192Z,99.90
2018-10-16T03:43:12.567Z,99.90
2018-10-16T03:45:41.992Z,99.90
2018-10-16T03:48:11.369Z,99.90
2018-10-16T03:50:40.848Z,99.90
2018-10-16T03:53:10.187Z,99.90
2018-10-16T03:55:39.554Z,99.90
2018-10-16T03:58:09.026Z,99.90
2018-10-16T04:00:38.487Z,99.90
2018-10-16T04:03:07.962Z,99.90
2018-10-16T04:05:37.408Z,99.90
2018-10-16T04:08:06.846Z,99.90
2018-10-16T04:10:36.299Z,99.90
2018-10-16T04:13:06.289Z,99.90
2018-10-16T04:15:35.601Z,99.90
2018-10-16T04:18:05.215Z,99.90
2018-10-16T04:20:34.896Z,99.90
2018-10-16T04:23:04.400Z,99.90
2018-10-16T04:25:33.936Z,99.90
2018-10-16T04:28:03.376Z,99.90
2018-10-16T04:30:32.938Z,99.90
2018-10-16T04:33:02.559Z,99.90
2018-10-16T04:35:31.963Z,99.90
2018-10-16T04:38:01.420Z,99.90
2018-10-16T04:40:30.899Z,99.90
2018-10-16T04:43:00.438Z,99.90
2018-10-16T04:45:29.907Z,99.90
2018-10-16T04:47:59.493Z,99.90
2018-10-16T04:50:28.904Z,99.90
2018-10-16T04:52:58.350Z,99.90
2018-10-16T04:55:27.734Z,99.90
2018-10-16T04:57:57.168Z,99.90
2018-10-16T05:00:27.379Z,99.90
2018-10-16T05:02:58.897Z,99.90
2018-10-16T05:05:28.808Z,99.90
2018-10-16T05:07:58.266Z,99.90
2018-10-16T05:10:27.674Z,99.90
2018-10-16T05:12:57.036Z,99.90
2018-10-16T05:15:30.191Z,99.90
2018-10-16T05:17:59.693Z,99.90
2018-10-16T05:20:29.089Z,99.90
2018-10-16T05:22:59.588Z,99.90
2018-10-16T05:25:30.037Z,99.90
2018-10-16T05:27:59.498Z,99.90
2018-10-16T05:30:28.929Z,99.90
2018-10-16T05:32:58.374Z,99.90
2018-10-16T05:35:27.826Z,99.90
2018-10-16T05:37:57.198Z,99.90
2018-10-16T05:40:26.659Z,99.90
2018-10-16T05:42:56.043Z,99.90
2018-10-16T05:45:26.397Z,99.90
2018-10-16T05:47:55.861Z,99.90
2018-10-16T05:50:25.301Z,99.90
2018-10-16T05:52:54.727Z,99.90
2018-10-16T05:55:24.165Z,99.90
2018-10-16T05:57:53.542Z,99.90
2018-10-16T06:00:36.434Z,99.90
2018-10-16T06:03:06.066Z,99.90
2018-10-16T06:05:35.770Z,99.90
2018-10-16T06:08:05.550Z,99.90
2018-10-16T06:10:35.018Z,99.90
2018-10-16T06:13:04.418Z,99.90
2018-10-16T06:15:33.843Z,99.90
2018-10-16T06:18:03.271Z,99.90
2018-10-16T06:20:32.692Z,99.90
2018-10-16T06:23:02.318Z,99.90
2018-10-16T06:25:31.920Z,99.90
2018-10-16T06:28:15.524Z,99.90
2018-10-16T06:30:44.935Z,99.90
2018-10-16T06:33:15.762Z,99.90
2018-10-16T06:35:45.261Z,99.90
2018-10-16T06:38:14.685Z,99.90
2018-10-16T06:40:44.293Z,99.90
2018-10-16T06:43:13.623Z,99.90
2018-10-16T06:45:43.062Z,99.90
2018-10-16T06:48:12.651Z,99.90
2018-10-16T06:50:41.995Z,99.90
2018-10-16T06:53:11.541Z,99.90
2018-10-16T06:55:41.045Z,99.90
2018-10-16T06:58:10.515Z,99.90
2018-10-16T07:00:40.522Z,99.90
2018-10-16T07:03:10.082Z,99.90
2018-10-16T07:05:39.636Z,99.90
2018-10-16T07:08:09.092Z,99.90
2018-10-16T07:10:38.621Z,99.90
2018-10-16T07:13:08.011Z,99.90
2018-10-16T07:15:37.530Z,99.90
2018-10-16T07:18:07.214Z,99.90
2018-10-16T07:20:36.736Z,99.90
2018-10-16T07:23:06.145Z,99.90
2018-10-16T07:25:35.663Z,99.90
2018-10-16T07:28:05.178Z,99.90
2018-10-16T07:30:34.809Z,99.90
2018-10-16T07:33:04.340Z,99.90
2018-10-16T07:35:33.908Z,99.90
2018-10-16T07:38:03.551Z,99.90
2018-10-16T07:40:32.915Z,99.90
2018-10-16T07:43:02.558Z,99.90
2018-10-16T07:45:32.074Z,99.90
2018-10-16T07:48:01.625Z,99.90
2018-10-16T07:50:31.064Z,99.90
2018-10-16T07:53:00.505Z,99.90
2018-10-16T07:55:29.903Z,99.90
2018-10-16T07:57:59.418Z,99.90
2018-10-16T08:00:28.793Z,99.90
2018-10-16T08:02:58.324Z,99.90
2018-10-16T08:05:27.755Z,99.90
2018-10-16T08:08:01.455Z,99.90
2018-10-16T08:10:31.129Z,99.90
2018-10-16T08:13:00.757Z,99.90
2018-10-16T08:15:30.229Z,99.90
2018-10-16T08:17:59.796Z,99.90
2018-10-16T08:20:29.280Z,99.90
2018-10-16T08:22:58.696Z,99.90
2018-10-16T08:25:28.156Z,99.90
2018-10-16T08:27:57.807Z,99.90
2018-10-16T08:30:27.315Z,99.90
2018-10-16T08:32:57.317Z,99.90
2018-10-16T08:35:26.722Z,99.90
2018-10-16T08:40:11.507Z,99.90
2018-10-16T08:42:57.322Z,99.90
2018-10-16T08:45:43.895Z,99.90
2018-10-16T08:48:30.205Z,99.90
2018-10-16T08:51:16.689Z,99.90
2018-10-16T08:53:46.108Z,99.90
2018-10-16T08:56:15.578Z,99.90
2018-10-16T08:58:45.063Z,99.90
2018-10-16T09:01:14.522Z,99.90
2018-10-16T09:03:43.961Z,99.90
2018-10-16T09:06:13.555Z,99.90
2018-10-16T09:08:43.172Z,99.90
2018-10-16T09:11:12.679Z,99.90
2018-10-16T09:13:42.260Z,99.90
2018-10-16T09:16:11.647Z,99.90
2018-10-16T09:18:41.112Z,99.90
2018-10-16T09:21:10.511Z,99.90
2018-10-16T09:23:39.967Z,99.90
2018-10-16T09:26:09.478Z,99.50
2018-10-16T09:28:39.135Z,99.70
2018-10-16T09:31:09.359Z,99.50
2018-10-16T09:33:38.794Z,99.10
2018-10-16T09:36:08.521Z,98.80
2018-10-16T09:38:38.301Z,98.50
2018-10-16T09:41:07.891Z,98.40
2018-10-16T09:43:37.457Z,98.10
2018-10-16T09:46:06.948Z,97.70
2018-10-16T09:48:36.547Z,97.80
2018-10-16T09:51:06.255Z,97.50
2018-10-16T09:53:35.730Z,97.30
2018-10-16T09:56:05.633Z,97.30
2018-10-16T09:58:35.056Z,97.20
2018-10-16T10:01:09.719Z,97.20
2018-10-16T10:03:39.154Z,97.00
2018-10-16T10:06:08.597Z,96.70
2018-10-16T10:08:37.979Z,96.70
2018-10-16T10:11:07.609Z,96.60
2018-10-16T10:13:37.216Z,97.00
2018-10-16T10:16:07.172Z,96.00
2018-10-16T10:18:36.671Z,95.90
2018-10-16T10:21:06.113Z,95.60
2018-10-16T10:23:35.524Z,95.20
2018-10-16T10:26:04.949Z,95.00
2018-10-16T10:28:34.455Z,95.60
2018-10-16T10:31:03.984Z,95.10
2018-10-16T10:33:33.389Z,95.20
2018-10-16T10:36:02.738Z,94.90
2018-10-16T10:38:32.130Z,95.20
2018-10-16T10:41:01.851Z,94.10
2018-10-16T10:43:31.279Z,94.10
2018-10-16T10:46:00.675Z,94.10
2018-10-16T10:48:30.085Z,93.60
2018-10-16T10:50:59.816Z,93.30
2018-10-16T10:53:28.983Z,93.30
2018-10-16T10:55:58.482Z,93.10
2018-10-16T10:58:28.024Z,92.40
2018-10-16T11:00:57.422Z,92.30
2018-10-16T11:03:26.960Z,91.80
2018-10-16T11:05:56.231Z,91.30
2018-10-16T11:08:25.613Z,91.60
2018-10-16T11:10:55.056Z,91.30
2018-10-16T11:13:24.463Z,91.30
2018-10-16T11:15:53.911Z,90.00
2018-10-16T11:18:23.344Z,88.90
2018-10-16T11:20:52.816Z,90.00
2018-10-16T11:23:22.235Z,89.60
2018-10-16T11:25:51.600Z,89.30
2018-10-16T11:28:21.053Z,89.40
2018-10-16T11:30:50.529Z,87.60
2018-10-16T11:33:20.025Z,87.80
2018-10-16T11:35:49.536Z,86.60
2018-10-16T11:38:19.017Z,87.60
2018-10-16T11:40:48.435Z,87.30
2018-10-16T11:43:17.821Z,86.50
2018-10-16T11:45:47.270Z,85.80
2018-10-16T11:48:16.701Z,85.40
2018-10-16T11:50:46.155Z,85.10
2018-10-16T11:53:15.535Z,84.90
2018-10-16T11:55:45.267Z,84.10
2018-10-16T11:58:14.706Z,83.80
2018-10-16T12:00:44.101Z,84.40
2018-10-16T12:03:13.486Z,83.30
2018-10-16T12:05:42.908Z,83.30
2018-10-16T12:08:13.592Z,82.70
2018-10-16T12:10:43.379Z,82.20
2018-10-16T12:13:13.762Z,82.60
2018-10-16T12:15:43.364Z,82.90
2018-10-16T12:19:18.260Z,82.50
2018-10-16T12:21:47.576Z,82.30
2018-10-16T12:24:17.026Z,79.60
2018-10-16T12:26:46.402Z,79.40
2018-10-16T12:29:15.783Z,78.40
2018-10-16T12:31:45.172Z,78.40
2018-10-16T12:34:14.539Z,78.60
2018-10-16T12:36:44.027Z,78.00
2018-10-16T12:39:14.428Z,78.30
2018-10-16T12:41:43.798Z,79.80
2018-10-16T12:44:13.211Z,79.30
2018-10-16T12:46:42.675Z,79.20
2018-10-16T12:49:12.062Z,79.60
2018-10-16T12:51:41.498Z,78.70
2018-10-16T12:54:10.965Z,79.00
2018-10-16T12:56:40.307Z,79.40
2018-10-16T12:59:13.542Z,79.90
2018-10-16T13:01:42.914Z,79.00
2018-10-16T13:04:12.443Z,80.40
2018-10-16T13:06:42.319Z,80.40
2018-10-16T13:09:12.623Z,81.00
2018-10-16T13:11:42.924Z,80.50
2018-10-16T13:14:11.667Z,79.70
2018-10-16T13:16:41.074Z,79.00
2018-10-16T13:19:10.469Z,79.90
2018-10-16T13:21:39.809Z,79.80
2018-10-16T13:24:08.531Z,79.80
2018-10-16T13:26:37.990Z,80.90
2018-10-16T13:29:07.469Z,78.90
2018-10-16T13:31:36.837Z,79.20
2018-10-16T13:34:06.551Z,79.60
2018-10-16T13:36:35.887Z,80.00
2018-10-16T13:39:07.641Z,80.30
2018-10-16T13:41:37.059Z,80.00
2018-10-16T13:44:06.539Z,79.80
2018-10-16T13:46:35.997Z,80.80
2018-10-16T13:49:05.777Z,80.30
2018-10-16T13:51:35.205Z,80.80
2018-10-16T13:54:04.814Z,80.30
2018-10-16T13:56:34.295Z,79.60
2018-10-16T13:59:03.778Z,79.60
2018-10-16T14:01:33.127Z,78.90
2018-10-16T14:04:02.559Z,79.30
2018-10-16T14:06:31.950Z,78.00
2018-10-16T14:09:01.335Z,78.10
2018-10-16T14:11:30.692Z,78.80
2018-10-16T14:14:00.119Z,79.30
2018-10-16T14:16:29.525Z,79.40
2018-10-16T14:18:58.874Z,78.90
2018-10-16T14:21:28.823Z,78.10
2018-10-16T14:23:58.183Z,78.20
2018-10-16T14:26:27.621Z,77.00
2018-10-16T14:28:56.958Z,78.00
2018-10-16T14:31:26.410Z,78.10
2018-10-16T14:33:55.153Z,78.10
2018-10-16T14:36:24.431Z,77.90
2018-10-16T14:38:54.120Z,77.40
2018-10-16T14:41:23.496Z,77.50
2018-10-16T14:43:52.962Z,77.50
2018-10-16T14:46:22.422Z,76.30
2018-10-16T14:48:51.775Z,76.60
2018-10-16T14:51:21.216Z,77.40
2018-10-16T14:53:50.642Z,76.30
2018-10-16T14:56:20.018Z,76.20
2018-10-16T14:58:49.378Z,77.10
2018-10-16T15:01:18.754Z,77.40
2018-10-16T15:03:48.162Z,77.30
2018-10-16T15:06:17.527Z,76.40
2018-10-16T15:08:46.939Z,76.80
2018-10-16T15:11:16.336Z,77.20
2018-10-16T15:13:45.198Z,77.10
2018-10-16T15:16:14.750Z,77.60
2018-10-16T15:18:43.386Z,77.40
2018-10-16T15:21:12.780Z,76.60
2018-10-16T15:23:41.472Z,76.60
2018-10-16T15:26:10.921Z,77.00
2018-10-16T15:28:40.255Z,77.30
2018-10-16T15:31:09.792Z,76.60
2018-10-16T15:33:39.179Z,77.20
2018-10-16T15:36:07.893Z,77.00
2018-10-16T15:38:36.538Z,77.20
2018-10-16T15:41:05.564Z,77.70
2018-10-16T15:43:35.027Z,78.40
2018-10-16T15:46:03.771Z,79.00
2018-10-16T15:48:34.172Z,79.70
2018-10-16T15:51:05.128Z,80.30
2018-10-16T15:53:34.336Z,80.00
2018-10-16T15:56:03.578Z,81.10
2018-10-16T15:58:32.891Z,81.30
2018-10-16T16:01:01.530Z,81.90
2018-10-16T16:03:30.234Z,82.40
2018-10-16T16:05:58.883Z,82.50
2018-10-16T16:08:27.577Z,82.70
2018-10-16T16:10:56.272Z,82.30
2018-10-16T16:13:24.900Z,82.30
2018-10-16T16:15:53.616Z,82.60
2018-10-16T16:18:22.369Z,82.50
2018-10-16T16:20:50.951Z,83.30
2018-10-16T16:23:19.661Z,84.10
2018-10-16T16:25:49.151Z,83.70
2018-10-16T16:46:49.425Z,88.30
2018-10-16T16:49:18.393Z,88.20
2018-10-16T16:51:47.071Z,89.30
2018-10-16T16:54:16.733Z,89.10
2018-10-16T16:56:45.469Z,89.00
2018-10-16T16:59:14.132Z,89.40
2018-10-16T17:01:43.587Z,89.60
2018-10-16T17:04:13.086Z,90.30
2018-10-16T17:06:42.380Z,90.40
2018-10-16T17:09:13.314Z,90.50
2018-10-16T17:11:42.008Z,90.40
2018-10-16T17:14:10.791Z,90.30
2018-10-16T17:16:40.201Z,90.10
2018-10-16T17:19:09.693Z,90.00
2018-10-16T17:21:39.248Z,90.00
2018-10-16T17:24:08.716Z,90.20
2018-10-16T17:26:38.251Z,90.30
2018-10-16T17:29:07.782Z,90.30
2018-10-16T17:31:37.245Z,90.40
2018-10-16T17:34:07.431Z,90.40
2018-10-16T17:36:36.780Z,90.30
2018-10-16T17:39:09.253Z,90.70
2018-10-16T17:41:38.654Z,90.80
2018-10-16T17:44:08.676Z,91.10
2018-10-16T17:46:38.182Z,91.30
2018-10-16T17:49:08.076Z,91.40
2018-10-16T17:51:37.503Z,91.60
2018-10-16T17:54:06.928Z,91.80
2018-10-16T17:56:37.178Z,91.90
2018-10-16T17:59:06.869Z,92.30
2018-10-16T18:01:36.364Z,92.40
2018-10-16T18:04:06.174Z,92.50
2018-10-16T18:06:35.642Z,92.50
2018-10-16T18:09:06.632Z,92.90
2018-10-16T18:11:36.400Z,92.90
2018-10-16T18:14:06.407Z,93.20
2018-10-16T18:16:35.832Z,93.20
2018-10-16T18:19:05.292Z,93.30
2018-10-16T18:21:34.807Z,93.30
2018-10-16T18:24:04.650Z,93.50
2018-10-16T18:26:34.066Z,93.60
2018-10-16T18:29:03.712Z,93.80
2018-10-16T18:31:33.255Z,93.60
2018-10-16T18:34:02.734Z,93.50
2018-10-16T18:36:32.179Z,93.50
2018-10-16T18:39:01.895Z,93.80
2018-10-16T18:41:31.326Z,93.60
2018-10-16T18:44:00.719Z,93.60
2018-10-16T18:46:30.239Z,93.80
2018-10-16T18:48:59.700Z,93.90
2018-10-16T18:51:29.926Z,94.20
2018-10-16T18:53:59.725Z,94.30
2018-10-16T18:56:30.151Z,94.30
2018-10-16T18:59:00.709Z,94.50
2018-10-16T19:01:30.219Z,94.60
2018-10-16T19:03:59.763Z,94.80
2018-10-16T19:06:29.311Z,94.90
2018-10-16T19:08:58.966Z,94.80
2018-10-16T19:11:28.415Z,95.00
2018-10-16T19:13:58.903Z,95.10
2018-10-16T19:16:28.620Z,95.40
2018-10-16T19:18:58.160Z,95.20
2018-10-16T19:21:27.885Z,95.00
2018-10-16T19:24:01.016Z,95.10
2018-10-16T19:26:30.727Z,95.30
2018-10-16T19:29:00.190Z,95.80
2018-10-16T19:31:29.737Z,96.00
2018-10-16T19:33:59.344Z,96.20
2018-10-16T19:36:29.025Z,96.30
2018-10-16T19:38:58.610Z,96.40
2018-10-16T19:41:28.169Z,96.30
2018-10-16T19:43:57.816Z,96.60
2018-10-16T19:46:27.639Z,96.50
2018-10-16T19:48:57.170Z,96.60
2018-10-16T19:51:26.693Z,96.70
2018-10-16T19:53:56.231Z,96.70
2018-10-16T19:56:25.619Z,97.00
2018-10-16T19:58:55.180Z,96.90
2018-10-16T20:01:24.669Z,96.90
2018-10-16T20:03:54.209Z,97.00
2018-10-16T20:06:23.732Z,97.30
2018-10-16T20:08:53.256Z,97.40
2018-10-16T20:11:22.840Z,97.50
2018-10-16T20:13:52.360Z,97.50
2018-10-16T20:16:21.902Z,97.60
2018-10-16T20:18:51.588Z,97.70
2018-10-16T20:21:21.060Z,97.70
2018-10-16T20:23:50.475Z,97.40
2018-10-16T20:26:19.945Z,97.20
2018-10-16T20:28:49.446Z,97.30
2018-10-16T20:31:18.889Z,97.50
2018-10-16T20:33:48.334Z,97.60
2018-10-16T20:36:17.817Z,97.70
2018-10-16T20:38:47.290Z,97.70
2018-10-16T20:41:16.700Z,97.80
2018-10-16T20:43:46.157Z,98.00
2018-10-16T20:46:15.596Z,98.10
2018-10-16T20:48:45.315Z,98.60
2018-10-16T20:51:14.806Z,98.30
2018-10-16T20:53:44.402Z,98.50
2018-10-16T20:56:13.833Z,98.40
2018-10-16T20:58:43.317Z,98.30
2018-10-16T21:01:14.120Z,98.30
2018-10-16T21:03:43.472Z,98.50
2018-10-16T21:06:13.372Z,98.70
2018-10-16T21:08:42.653Z,98.40
2018-10-16T21:11:12.080Z,98.50
2018-10-16T21:13:41.536Z,98.60
2018-10-16T21:16:11.021Z,98.80
2018-10-16T21:18:40.575Z,99.00
2018-10-16T21:21:10.027Z,99.10
2018-10-16T21:23:39.458Z,99.10
2018-10-16T21:26:09.071Z,99.30
2018-10-16T21:28:38.662Z,99.50
2018-10-16T21:31:08.291Z,99.50
2018-10-16T21:33:37.729Z,99.30
2018-10-16T21:36:07.539Z,99.40
2018-10-16T21:38:37.073Z,99.30
2018-10-16T21:41:06.572Z,99.40
2018-10-16T21:43:35.871Z,99.50
2018-10-16T21:46:06.221Z,99.60
2018-10-16T21:48:35.669Z,99.60
2018-10-16T21:51:05.140Z,99.80
2018-10-16T21:53:34.637Z,99.90
2018-10-16T21:56:04.050Z,99.80
2018-10-16T21:58:33.554Z,99.80
2018-10-16T22:01:09.532Z,99.80
2018-10-16T22:03:39.469Z,99.90
2018-10-16T22:06:08.928Z,99.90
2018-10-16T22:08:38.294Z,99.90
2018-10-16T22:11:07.831Z,99.90
2018-10-16T22:13:37.176Z,99.90
2018-10-16T22:16:06.632Z,99.90
2018-10-16T22:18:36.043Z,99.90
2018-10-16T22:21:05.679Z,99.90
2018-10-16T22:23:35.164Z,99.90
2018-10-16T22:26:04.563Z,99.90
2018-10-16T22:28:33.968Z,99.90
2018-10-16T22:31:03.505Z,99.90
2018-10-16T22:33:32.936Z,99.90
2018-10-16T22:36:02.391Z,99.90
2018-10-16T22:38:31.771Z,99.90
2018-10-16T22:41:01.341Z,99.90
2018-10-16T22:43:30.835Z,99.90
2018-10-16T22:46:00.367Z,99.90
2018-10-16T22:48:29.898Z,99.90
2018-10-16T22:50:59.503Z,99.90
2018-10-16T22:53:28.891Z,99.90
2018-10-16T22:55:58.290Z,99.90
2018-10-16T22:58:27.688Z,99.90
2018-10-16T23:00:57.135Z,99.90
2018-10-16T23:03:26.405Z,99.90
2018-10-16T23:05:55.846Z,99.90
2018-10-16T23:08:25.219Z,99.90
2018-10-16T23:10:54.611Z,99.90
2018-10-16T23:13:24.025Z,99.90
2018-10-16T23:15:53.450Z,99.90
2018-10-16T23:18:22.828Z,99.90
2018-10-16T23:20:52.295Z,99.90
2018-10-16T23:23:21.695Z,99.90
2018-10-16T23:25:51.156Z,99.90
2018-10-16T23:28:20.527Z,99.90
2018-10-16T23:30:50.021Z,99.90
2018-10-16T23:33:19.403Z,99.90
2018-10-16T23:35:48.859Z,99.90
2018-10-16T23:38:18.254Z,99.90
2018-10-16T23:40:47.765Z,99.90
2018-10-16T23:43:17.224Z,99.90
2018-10-16T23:45:46.548Z,99.90
2018-10-16T23:48:16.049Z,99.90
2018-10-16T23:50:45.457Z,99.90
2018-10-16T23:53:15.003Z,99.90
2018-10-16T23:55:44.416Z,99.90
2018-10-16T23:58:13.790Z,99.90
